createdAt,value
2022-09-10T00:00:05.211Z,3.95
2022-09-10T00:02:39.232Z,4.20
2022-09-10T00:05:09.975Z,4.32
2022-09-10T00:07:38.085Z,3.80
2022-09-10T00:10:06.439Z,3.95
2022-09-10T00:12:35.939Z,3.97
2022-09-10T00:15:06.253Z,4.13
2022-09-10T00:17:34.218Z,4.75
2022-09-10T00:20:02.423Z,4.40
2022-09-10T00:22:30.411Z,4.53
2022-09-10T00:24:59.602Z,4.13
2022-09-10T00:27:27.968Z,4.50
2022-09-10T00:29:56.235Z,4.30
2022-09-10T00:32:25.474Z,4.20
2022-09-10T00:34:55.247Z,4.40
2022-09-10T00:37:23.998Z,4.15
2022-09-10T00:39:52.174Z,4.65
2022-09-10T00:42:20.194Z,4.22
2022-09-10T00:45:00.461Z,4.30
2022-09-10T00:47:32.197Z,4.38
2022-09-10T00:50:05.518Z,4.45
2022-09-10T00:52:39.378Z,4.53
2022-09-10T00:55:09.029Z,4.63
2022-09-10T00:57:37.346Z,4.13
2022-09-10T01:00:10.277Z,3.65
2022-09-10T01:05:10.117Z,3.88
2022-09-10T01:07:39.146Z,4.28
2022-09-10T01:10:10.031Z,4.43
2022-09-10T01:12:51.525Z,3.83
2022-09-10T01:15:24.612Z,4.72
2022-09-10T01:18:06.518Z,5.30
2022-09-10T01:21:02.804Z,5.22
2022-09-10T01:24:00.450Z,5.22
2022-09-10T01:26:39.000Z,4.80
2022-09-10T01:29:11.879Z,4.80
2022-09-10T01:34:18.826Z,4.32
2022-09-10T01:36:50.394Z,4.63
2022-09-10T01:39:19.493Z,5.13
2022-09-10T01:41:49.043Z,5.53
2022-09-10T01:44:48.931Z,5.55
2022-09-10T01:47:33.595Z,4.93
2022-09-10T01:50:22.493Z,5.35
2022-09-10T01:52:59.134Z,5.30
2022-09-10T01:55:35.541Z,5.47
2022-09-10T01:58:16.534Z,5.25
2022-09-10T02:00:55.304Z,5.60
2022-09-10T02:03:25.916Z,5.60
2022-09-10T02:05:54.927Z,6.22
2022-09-10T02:08:26.113Z,5.97
2022-09-10T02:10:55.758Z,6.15
2022-09-10T02:13:26.990Z,6.28
2022-09-10T02:16:17.490Z,5.78
2022-09-10T02:18:47.712Z,5.65
2022-09-10T02:21:15.954Z,5.93
2022-09-10T02:23:46.130Z,6.30
2022-09-10T02:26:15.710Z,6.65
2022-09-10T02:28:44.550Z,6.88
2022-09-10T02:31:14.930Z,6.85
2022-09-10T02:33:43.234Z,7.75
2022-09-10T02:36:12.501Z,7.88
2022-09-10T02:38:40.399Z,7.63
2022-09-10T02:41:09.758Z,7.57
2022-09-10T02:43:38.147Z,7.97
2022-09-10T02:46:07.357Z,7.85
2022-09-10T02:48:39.986Z,8.00
2022-09-10T02:51:09.306Z,9.18
2022-09-10T02:53:38.586Z,8.48
2022-09-10T02:56:08.735Z,8.15
2022-09-10T02:58:37.703Z,8.35
2022-09-10T03:01:08.652Z,8.50
2022-09-10T03:03:39.116Z,8.27
2022-09-10T03:06:07.490Z,7.65
2022-09-10T03:08:35.805Z,8.27
2022-09-10T03:11:04.850Z,7.75
2022-09-10T03:13:34.511Z,7.97
2022-09-10T03:16:04.144Z,7.90
2022-09-10T03:18:35.304Z,8.05
2022-09-10T03:21:13.122Z,9.15
2022-09-10T03:23:41.116Z,8.73
2022-09-10T03:26:09.679Z,9.27
2022-09-10T03:28:38.661Z,9.52
2022-09-10T03:31:09.498Z,9.13
2022-09-10T03:33:42.799Z,9.73
2022-09-10T03:36:13.192Z,10.05
2022-09-10T03:38:42.906Z,9.13
2022-09-10T03:41:11.491Z,8.98
2022-09-10T03:43:39.839Z,8.27
2022-09-10T03:46:11.875Z,8.75
2022-09-10T03:48:43.179Z,8.45
2022-09-10T03:51:12.587Z,8.23
2022-09-10T03:53:40.806Z,8.05
2022-09-10T03:56:10.146Z,7.68
2022-09-10T03:58:38.404Z,8.07
2022-09-10T04:01:06.978Z,7.35
2022-09-10T04:03:38.225Z,7.05
2022-09-10T04:06:06.373Z,7.25
2022-09-10T04:08:36.417Z,6.93
2022-09-10T04:11:07.868Z,7.03
2022-09-10T04:13:35.714Z,7.07
2022-09-10T04:16:04.732Z,7.40
2022-09-10T04:18:35.050Z,7.18
2022-09-10T04:21:04.468Z,7.25
2022-09-10T04:23:33.198Z,7.18
2022-09-10T04:26:12.429Z,6.57
2022-09-10T04:28:40.691Z,6.88
2022-09-10T04:31:09.093Z,6.82
2022-09-10T04:33:37.280Z,6.88
2022-09-10T04:36:07.126Z,7.38
2022-09-10T04:38:41.634Z,7.53
2022-09-10T04:41:11.198Z,8.10
2022-09-10T04:43:40.755Z,7.53
2022-09-10T04:46:08.683Z,7.53
2022-09-10T04:48:40.184Z,8.07
2022-09-10T04:51:17.556Z,6.93
2022-09-10T04:53:54.735Z,7.10
2022-09-10T04:56:28.341Z,8.00
2022-09-10T04:58:56.300Z,7.47
2022-09-10T05:01:24.374Z,7.47
2022-09-10T05:03:54.114Z,7.65
2022-09-10T05:06:23.232Z,6.90
2022-09-10T05:08:51.479Z,8.13
2022-09-10T05:11:20.271Z,7.93
2022-09-10T05:13:49.780Z,7.57
2022-09-10T05:16:22.019Z,7.45
2022-09-10T05:18:49.924Z,7.30
2022-09-10T05:21:18.530Z,7.35
2022-09-10T05:23:46.967Z,7.13
2022-09-10T05:26:14.924Z,7.47
2022-09-10T05:28:43.444Z,8.02
2022-09-10T05:31:17.306Z,7.78
2022-09-10T05:33:46.434Z,8.38
2022-09-10T05:36:14.921Z,7.82
2022-09-10T05:38:45.374Z,7.72
2022-09-10T05:41:13.947Z,7.60
2022-09-10T05:43:46.603Z,7.90
2022-09-10T05:46:16.066Z,7.95
2022-09-10T05:51:15.925Z,7.63
2022-09-10T05:53:44.943Z,7.78
2022-09-10T05:56:12.787Z,8.00
2022-09-10T05:58:45.044Z,8.88
2022-09-10T06:01:16.094Z,7.78
2022-09-10T06:03:44.972Z,8.10
2022-09-10T06:06:13.022Z,8.35
2022-09-10T06:08:46.154Z,8.25
2022-09-10T06:11:21.775Z,8.23
2022-09-10T06:13:50.667Z,7.45
2022-09-10T06:16:21.537Z,7.40
2022-09-10T06:18:49.619Z,7.65
2022-09-10T06:21:28.151Z,8.80
2022-09-10T06:23:57.769Z,8.20
2022-09-10T06:26:27.578Z,8.05
2022-09-10T06:28:59.182Z,7.53
2022-09-10T06:31:28.776Z,8.40
2022-09-10T06:33:57.613Z,7.85
2022-09-10T06:36:29.524Z,7.75
2022-09-10T06:38:58.082Z,6.13
2022-09-10T06:41:26.955Z,6.38
2022-09-10T06:44:01.451Z,6.28
2022-09-10T06:47:25.864Z,5.72
2022-09-10T06:49:42.074Z,5.55
2022-09-10T06:52:13.008Z,6.05
2022-09-10T06:54:41.007Z,5.82
2022-09-10T06:57:20.311Z,5.85
2022-09-10T06:59:48.216Z,6.22
2022-09-10T07:02:17.634Z,5.50
2022-09-10T07:04:46.200Z,5.68
2022-09-10T07:07:15.002Z,5.30
2022-09-10T07:09:43.198Z,5.00
2022-09-10T07:12:15.202Z,5.28
2022-09-10T07:14:43.302Z,4.72
2022-09-10T07:17:12.643Z,4.82
2022-09-10T07:19:42.053Z,4.60
2022-09-10T07:22:20.733Z,4.35
2022-09-10T07:24:50.262Z,4.68
2022-09-10T07:27:28.882Z,4.80
2022-09-10T07:29:58.426Z,5.00
2022-09-10T07:32:26.579Z,4.65
2022-09-10T07:35:07.472Z,4.60
2022-09-10T07:37:35.455Z,4.72
2022-09-10T07:40:04.697Z,4.40
2022-09-10T07:42:32.790Z,4.30
2022-09-10T07:45:00.699Z,4.15
2022-09-10T07:47:28.550Z,4.63
2022-09-10T07:49:56.915Z,4.40
2022-09-10T07:52:26.171Z,4.00
2022-09-10T07:54:56.126Z,4.40
2022-09-10T07:57:24.015Z,4.18
2022-09-10T07:59:51.973Z,4.35
2022-09-10T08:02:25.776Z,4.63
2022-09-10T08:04:58.611Z,3.95
2022-09-10T08:07:28.965Z,4.10
2022-09-10T08:09:57.210Z,3.90
2022-09-10T08:12:25.913Z,4.00
2022-09-10T08:14:56.869Z,3.70
2022-09-10T08:17:25.289Z,3.80
2022-09-10T08:19:53.799Z,3.97
2022-09-10T08:22:21.723Z,3.85
2022-09-10T08:24:57.171Z,3.78
2022-09-10T08:27:30.231Z,3.95
2022-09-10T08:29:58.356Z,3.28
2022-09-10T08:32:27.701Z,3.63
2022-09-10T08:34:55.881Z,3.10
2022-09-10T08:37:23.852Z,3.00
2022-09-10T08:39:51.790Z,2.65
2022-09-10T08:42:27.020Z,3.30
2022-09-10T08:44:57.196Z,2.70
2022-09-10T08:47:34.403Z,2.70
2022-09-10T08:50:13.710Z,3.10
2022-09-10T08:52:46.119Z,3.45
2022-09-10T08:55:25.770Z,3.08
2022-09-10T08:57:59.312Z,3.45
2022-09-10T09:00:28.553Z,3.60
2022-09-10T09:03:02.215Z,3.42
2022-09-10T09:05:40.327Z,3.10
2022-09-10T09:08:13.140Z,2.90
2022-09-10T09:13:49.378Z,2.47
2022-09-10T09:16:28.791Z,2.58
2022-09-10T09:19:02.686Z,2.70
2022-09-10T09:21:39.763Z,3.28
2022-09-10T09:24:15.788Z,2.13
2022-09-10T09:26:51.377Z,2.05
2022-09-10T09:29:24.748Z,2.15
2022-09-10T09:31:56.399Z,2.60
2022-09-10T09:34:29.719Z,2.30
2022-09-10T09:36:58.842Z,2.30
2022-09-10T09:39:31.458Z,1.95
2022-09-10T09:42:05.780Z,2.10
2022-09-10T09:44:40.188Z,2.65
2022-09-10T09:47:08.797Z,2.08
2022-09-10T09:49:39.903Z,2.17
2022-09-10T09:52:18.406Z,2.00
2022-09-10T09:55:13.680Z,1.90
2022-09-10T09:57:38.334Z,1.97
2022-09-10T10:00:36.676Z,1.75
2022-09-10T10:03:08.201Z,1.48
2022-09-10T10:05:37.279Z,1.30
2022-09-10T10:08:05.105Z,1.67
2022-09-10T10:10:33.052Z,1.52
2022-09-10T10:13:00.741Z,1.65
2022-09-10T10:15:42.074Z,1.80
2022-09-10T10:18:31.713Z,1.90
2022-09-10T10:21:14.173Z,1.85
2022-09-10T10:23:42.334Z,1.80
2022-09-10T10:26:26.078Z,1.70
2022-09-10T10:28:58.596Z,1.50
2022-09-10T10:34:15.092Z,1.50
2022-09-10T10:36:50.322Z,1.70
2022-09-10T10:39:24.368Z,1.90
2022-09-10T10:41:59.665Z,2.10
2022-09-10T10:44:38.276Z,2.13
2022-09-10T10:47:24.227Z,2.20
2022-09-10T10:50:03.306Z,2.22
2022-09-10T10:52:40.527Z,1.67
2022-09-10T10:55:17.304Z,1.73
2022-09-10T10:58:16.734Z,2.00
2022-09-10T11:00:48.042Z,1.70
2022-09-10T11:03:21.696Z,1.58
2022-09-10T11:05:51.475Z,1.60
2022-09-10T11:08:23.263Z,1.60
2022-09-10T11:10:54.917Z,1.70
2022-09-10T11:13:25.806Z,1.63
2022-09-10T11:15:59.343Z,1.73
2022-09-10T11:18:33.299Z,1.75
2022-09-10T11:21:06.198Z,1.75
2022-09-10T11:23:39.810Z,1.60
2022-09-10T11:26:10.701Z,1.48
2022-09-10T11:28:43.531Z,1.60
2022-09-10T11:31:16.359Z,1.70
2022-09-10T11:33:53.382Z,1.73
2022-09-10T11:36:25.117Z,1.65
2022-09-10T11:39:05.254Z,1.38
2022-09-10T11:41:34.258Z,1.60
2022-09-10T11:44:08.333Z,1.67
2022-09-10T11:46:37.294Z,2.08
2022-09-10T11:49:11.727Z,2.10
2022-09-10T11:51:41.013Z,2.38
2022-09-10T11:54:14.032Z,2.20
2022-09-10T11:56:53.926Z,2.35
2022-09-10T11:59:34.877Z,2.20
2022-09-10T12:02:32.588Z,2.28
2022-09-10T12:05:05.138Z,2.15
2022-09-10T12:10:14.647Z,2.28
2022-09-10T12:12:44.999Z,2.20
2022-09-10T12:15:20.192Z,2.22
2022-09-10T12:17:51.202Z,2.30
2022-09-10T12:20:22.105Z,2.10
2022-09-10T12:22:54.661Z,2.35
2022-09-10T12:28:05.416Z,2.20
2022-09-10T12:30:52.630Z,2.40
2022-09-10T12:34:00.609Z,2.72
2022-09-10T12:37:18.093Z,2.80
2022-09-10T12:39:48.408Z,3.20
2022-09-10T12:42:29.588Z,3.25
2022-09-10T12:44:57.598Z,3.92
2022-09-10T12:47:50.129Z,3.50
2022-09-10T12:50:45.987Z,3.85
2022-09-10T12:53:54.997Z,4.00
2022-09-10T12:56:42.123Z,4.57
2022-09-10T12:59:34.659Z,4.63
2022-09-10T13:02:02.879Z,5.22
2022-09-10T13:04:34.616Z,4.93
2022-09-10T13:07:05.066Z,4.97
2022-09-10T13:09:35.187Z,6.20
2022-09-10T13:12:08.139Z,6.13
2022-09-10T13:14:38.235Z,6.57
2022-09-10T13:17:06.523Z,6.80
2022-09-10T13:19:52.946Z,8.23
2022-09-10T13:23:04.014Z,7.25
2022-09-10T13:25:36.892Z,7.40
2022-09-10T13:28:45.112Z,7.38
2022-09-10T13:31:25.667Z,6.47
2022-09-10T13:34:14.134Z,7.07
2022-09-10T13:36:48.511Z,6.85
2022-09-10T13:39:43.359Z,7.32
2022-09-10T13:42:20.689Z,6.75
2022-09-10T13:45:14.178Z,7.13
2022-09-10T13:47:47.196Z,7.13
2022-09-10T13:50:18.407Z,7.25
2022-09-10T13:52:48.365Z,7.40
2022-09-10T13:55:19.663Z,6.90
2022-09-10T13:57:49.853Z,8.23
2022-09-10T14:00:24.265Z,8.13
2022-09-10T14:02:53.848Z,7.88
2022-09-10T14:05:34.741Z,8.07
2022-09-10T14:08:06.377Z,8.10
2022-09-10T14:10:38.698Z,8.63
2022-09-10T14:13:07.672Z,8.40
2022-09-10T14:15:40.007Z,10.50
2022-09-10T14:18:11.025Z,11.73
2022-09-10T14:20:40.296Z,12.20
2022-09-10T14:23:13.615Z,12.60
2022-09-10T14:25:43.332Z,12.65
2022-09-10T14:28:24.954Z,12.95
2022-09-10T14:31:18.222Z,12.75
2022-09-10T14:36:16.139Z,12.57
2022-09-10T14:38:45.814Z,13.57
2022-09-10T14:41:21.715Z,14.80
2022-09-10T14:43:50.180Z,14.45
2022-09-10T14:46:50.545Z,14.63
2022-09-10T14:49:20.064Z,13.70
2022-09-10T14:51:48.028Z,15.30
2022-09-10T14:54:15.896Z,15.27
2022-09-10T14:56:46.101Z,15.15
2022-09-10T14:59:16.231Z,14.43
2022-09-10T15:01:45.529Z,15.65
2022-09-10T15:04:16.742Z,16.05
2022-09-10T15:06:44.951Z,16.02
2022-09-10T15:09:13.730Z,16.13
2022-09-10T15:11:48.821Z,15.15
2022-09-10T15:14:17.102Z,13.15
2022-09-10T15:16:44.934Z,16.13
2022-09-10T15:19:12.791Z,16.15
2022-09-10T15:21:42.891Z,16.40
2022-09-10T15:24:12.526Z,15.40
2022-09-10T15:26:40.423Z,15.68
2022-09-10T15:29:08.236Z,16.33
2022-09-10T15:31:36.581Z,15.32
2022-09-10T15:34:04.986Z,16.13
2022-09-10T15:36:33.026Z,18.80
2022-09-10T15:39:03.457Z,16.23
2022-09-10T15:41:31.959Z,15.75
2022-09-10T15:44:00.153Z,15.48
2022-09-10T15:46:28.270Z,15.05
2022-09-10T15:48:59.401Z,14.73
2022-09-10T15:51:27.583Z,14.75
2022-09-10T15:53:55.609Z,15.05
2022-09-10T15:56:26.963Z,14.50
2022-09-10T15:58:56.358Z,15.05
2022-09-10T16:01:25.309Z,14.60
2022-09-10T16:03:56.071Z,14.10
2022-09-10T16:06:25.327Z,12.95
2022-09-10T16:08:56.551Z,13.70
2022-09-10T16:11:26.256Z,12.75
2022-09-10T16:13:54.994Z,12.30
2022-09-10T16:16:24.401Z,13.50
2022-09-10T16:18:53.836Z,12.65
2022-09-10T16:21:23.501Z,13.00
2022-09-10T16:23:52.541Z,12.35
2022-09-10T16:26:22.864Z,12.73
2022-09-10T16:28:52.660Z,12.40
2022-09-10T16:31:23.195Z,11.98
2022-09-10T16:33:54.689Z,10.45
2022-09-10T16:36:23.500Z,11.63
2022-09-10T16:38:53.962Z,11.82
2022-09-10T16:41:22.321Z,10.82
2022-09-10T16:43:50.246Z,11.45
2022-09-10T16:46:20.175Z,11.18
2022-09-10T16:48:48.398Z,10.95
2022-09-10T16:51:17.983Z,11.52
2022-09-10T16:57:46.989Z,11.93
2022-09-10T17:00:16.407Z,10.63
2022-09-10T17:02:45.759Z,10.77
2022-09-10T17:05:13.622Z,12.05
2022-09-10T17:07:41.434Z,11.38
2022-09-10T17:10:10.071Z,11.90
2022-09-10T17:12:38.015Z,10.93
2022-09-10T17:15:06.393Z,11.70
2022-09-10T17:17:34.260Z,12.85
2022-09-10T17:20:03.942Z,12.50
2022-09-10T17:22:32.002Z,14.32
2022-09-10T17:24:59.973Z,14.30
2022-09-10T17:27:30.443Z,13.88
2022-09-10T17:29:58.290Z,15.35
2022-09-10T17:32:26.440Z,16.33
2022-09-10T17:34:55.110Z,17.60
2022-09-10T17:37:24.463Z,16.83
2022-09-10T17:39:52.566Z,16.45
2022-09-10T17:42:20.470Z,16.30
2022-09-10T17:44:49.409Z,16.67
2022-09-10T17:47:17.202Z,16.23
2022-09-10T17:49:45.988Z,15.68
2022-09-10T17:52:14.620Z,14.60
2022-09-10T17:54:44.204Z,14.93
2022-09-10T17:57:12.074Z,15.15
2022-09-10T17:59:40.637Z,16.02
2022-09-10T18:02:08.657Z,15.50
2022-09-10T18:04:36.589Z,15.48
2022-09-10T18:07:04.583Z,14.95
2022-09-10T18:09:32.483Z,15.88
2022-09-10T18:12:02.646Z,16.20
2022-09-10T18:14:31.084Z,15.45
2022-09-10T18:16:59.764Z,15.55
2022-09-10T18:19:27.769Z,15.60
2022-09-10T18:21:55.603Z,16.25
2022-09-10T18:24:24.966Z,15.18
2022-09-10T18:26:54.761Z,16.75
2022-09-10T18:29:25.373Z,17.08
2022-09-10T18:31:55.626Z,17.38
2022-09-10T18:34:26.918Z,16.35
2022-09-10T18:36:57.527Z,16.63
2022-09-10T18:39:26.275Z,16.42
2022-09-10T18:41:54.693Z,16.73
2022-09-10T18:44:28.615Z,16.92
2022-09-10T18:46:59.361Z,16.45
2022-09-10T18:49:29.203Z,15.88
2022-09-10T18:51:59.167Z,15.90
2022-09-10T18:54:29.626Z,15.80
2022-09-10T18:56:58.874Z,17.35
2022-09-10T18:59:29.903Z,16.58
2022-09-10T19:01:57.917Z,17.25
2022-09-10T19:04:28.872Z,16.77
2022-09-10T19:06:59.225Z,17.65
2022-09-10T19:09:29.674Z,17.95
2022-09-10T19:12:01.199Z,17.80
2022-09-10T19:14:35.681Z,18.60
2022-09-10T19:17:06.373Z,17.25
2022-09-10T19:19:36.341Z,17.38
2022-09-10T19:22:07.150Z,16.52
2022-09-10T19:24:54.157Z,16.83
2022-09-10T19:27:26.159Z,17.55
2022-09-10T19:29:58.500Z,17.13
2022-09-10T19:32:29.728Z,17.20
2022-09-10T19:35:01.211Z,16.77
2022-09-10T19:37:32.201Z,17.05
2022-09-10T19:40:03.815Z,16.27
2022-09-10T19:42:34.905Z,16.95
2022-09-10T19:45:10.187Z,16.98
2022-09-10T19:47:38.378Z,17.52
2022-09-10T19:50:10.238Z,17.05
2022-09-10T19:52:40.870Z,17.33
2022-09-10T19:55:12.853Z,17.42
2022-09-10T19:57:43.121Z,17.33
2022-09-10T20:00:36.189Z,18.27
2022-09-10T20:03:07.671Z,17.63
2022-09-10T20:05:38.758Z,18.88
2022-09-10T20:08:08.227Z,18.85
2022-09-10T20:10:38.858Z,19.80
2022-09-10T20:13:08.959Z,19.90
2022-09-10T20:15:45.322Z,18.98
2022-09-10T20:18:15.740Z,19.13
2022-09-10T20:20:46.678Z,19.63
2022-09-10T20:23:18.248Z,19.88
2022-09-10T20:25:47.065Z,20.23
2022-09-10T20:28:16.825Z,19.15
2022-09-10T20:30:49.266Z,19.27
2022-09-10T20:33:17.264Z,19.80
2022-09-10T20:35:47.609Z,18.88
2022-09-10T20:38:17.632Z,21.15
2022-09-10T20:40:47.385Z,20.17
2022-09-10T20:43:17.079Z,19.55
2022-09-10T20:45:49.349Z,19.45
2022-09-10T20:48:17.493Z,19.67
2022-09-10T20:50:53.227Z,19.25
2022-09-10T20:53:24.192Z,20.40
2022-09-10T20:56:02.542Z,19.83
2022-09-10T20:58:36.580Z,19.23
2022-09-10T21:01:11.263Z,19.20
2022-09-10T21:03:42.458Z,18.80
2022-09-10T21:06:13.431Z,18.88
2022-09-10T21:08:43.623Z,18.40
2022-09-10T21:11:15.158Z,20.10
2022-09-10T21:13:47.624Z,18.40
2022-09-10T21:16:19.396Z,18.95
2022-09-10T21:18:54.581Z,19.50
2022-09-10T21:21:27.878Z,19.08
2022-09-10T21:26:31.121Z,17.75
2022-09-10T21:29:03.634Z,18.05
2022-09-10T21:31:36.610Z,20.20
2022-09-10T21:34:07.548Z,19.55
2022-09-10T21:36:41.041Z,19.58
2022-09-10T21:39:16.242Z,19.48
2022-09-10T21:41:48.146Z,20.20
2022-09-10T21:44:20.341Z,19.92
2022-09-10T21:46:52.782Z,18.70
2022-09-10T21:49:23.517Z,18.77
2022-09-10T21:51:53.448Z,18.13
2022-09-10T21:54:24.253Z,19.48
2022-09-10T21:56:55.037Z,19.40
2022-09-10T21:59:26.659Z,19.90
2022-09-10T22:01:58.963Z,19.80
2022-09-10T22:04:30.151Z,21.10
2022-09-10T22:07:04.599Z,19.67
2022-09-10T22:09:35.464Z,20.48
2022-09-10T22:12:06.618Z,20.10
2022-09-10T22:14:37.525Z,20.63
2022-09-10T22:17:09.831Z,20.38
2022-09-10T22:19:40.763Z,21.80
2022-09-10T22:22:12.167Z,19.80
2022-09-10T22:24:43.046Z,22.00
2022-09-10T22:27:13.911Z,21.50
2022-09-10T22:29:45.283Z,20.88
2022-09-10T22:32:17.518Z,21.38
2022-09-10T22:34:48.956Z,22.50
2022-09-10T22:37:19.813Z,21.30
2022-09-10T22:39:50.763Z,20.80
2022-09-10T22:42:21.695Z,22.52
2022-09-10T22:44:52.965Z,24.55
2022-09-10T22:47:25.303Z,22.48
2022-09-10T22:49:57.291Z,23.33
2022-09-10T22:52:28.168Z,22.70
2022-09-10T22:54:59.076Z,23.42
2022-09-10T22:57:30.228Z,23.63
2022-09-10T23:00:01.159Z,22.67
2022-09-10T23:02:33.427Z,23.63
2022-09-10T23:05:06.544Z,24.83
2022-09-10T23:07:37.501Z,24.30
2022-09-10T23:10:09.036Z,23.65
2022-09-10T23:12:39.950Z,23.38
2022-09-10T23:15:11.643Z,23.88
2022-09-10T23:17:41.682Z,24.42
2022-09-10T23:20:12.833Z,23.38
2022-09-10T23:22:43.713Z,24.15
2022-09-10T23:25:14.655Z,25.30
2022-09-10T23:27:45.816Z,24.75
2022-09-10T23:30:16.144Z,24.08
2022-09-10T23:32:46.484Z,25.58
2022-09-10T23:35:17.826Z,25.35
2022-09-10T23:37:48.752Z,26.55
2022-09-10T23:40:23.164Z,26.40
2022-09-10T23:42:58.138Z,26.63
2022-09-10T23:45:29.058Z,26.77
2022-09-10T23:48:01.356Z,27.77
2022-09-10T23:50:31.879Z,28.13
2022-09-10T23:53:02.920Z,28.00
2022-09-10T23:55:36.778Z,28.25
2022-09-10T23:58:07.776Z,25.60
